createdAt,value
2018-03-14T00:01:41.991Z,8.75
2018-03-14T00:04:09.544Z,8.55
2018-03-14T00:06:37.582Z,8.53
2018-03-14T00:09:05.133Z,8.82
2018-03-14T00:11:32.657Z,8.53
2018-03-14T00:14:00.225Z,8.84
2018-03-14T00:16:27.787Z,8.92
2018-03-14T00:18:56.278Z,8.38
2018-03-14T00:21:23.828Z,8.68
2018-03-14T00:23:51.350Z,8.92
2018-03-14T00:26:19.293Z,8.87
2018-03-14T00:28:46.829Z,8.91
2018-03-14T00:31:14.365Z,8.88
2018-03-14T00:33:41.929Z,8.82
2018-03-14T00:36:09.474Z,8.91
2018-03-14T00:38:37.256Z,8.84
2018-03-14T00:41:05.767Z,8.77
2018-03-14T00:43:33.282Z,8.87
2018-03-14T00:46:00.834Z,8.84
2018-03-14T00:48:29.367Z,8.80
2018-03-14T00:50:57.104Z,8.67
2018-03-14T00:53:24.643Z,8.81
2018-03-14T00:55:52.186Z,8.86
2018-03-14T00:58:19.755Z,8.86
2018-03-14T01:00:47.286Z,8.93
2018-03-14T01:03:15.221Z,8.84
2018-03-14T01:05:43.625Z,8.58
2018-03-14T01:08:11.149Z,8.77
2018-03-14T01:10:38.695Z,8.70
2018-03-14T01:13:06.219Z,8.74
2018-03-14T01:15:33.925Z,8.91
2018-03-14T01:18:01.448Z,8.59
2018-03-14T01:20:28.974Z,8.68
2018-03-14T01:22:56.524Z,8.73
2018-03-14T01:25:24.057Z,8.83
2018-03-14T01:27:51.826Z,9.09
2018-03-14T01:30:19.363Z,9.08
2018-03-14T01:32:46.893Z,9.08
2018-03-14T01:35:14.437Z,8.64
2018-03-14T01:37:41.976Z,8.87
2018-03-14T01:40:09.682Z,8.79
2018-03-14T01:42:37.215Z,8.71
2018-03-14T01:45:04.740Z,8.68
2018-03-14T01:47:32.733Z,8.79
2018-03-14T01:50:00.277Z,8.79
2018-03-14T01:52:28.129Z,8.61
2018-03-14T01:54:55.649Z,8.25
2018-03-14T01:57:24.198Z,8.59
2018-03-14T01:59:51.755Z,8.27
2018-03-14T02:02:19.277Z,8.39
2018-03-14T02:04:46.953Z,8.52
2018-03-14T02:07:14.474Z,8.63
2018-03-14T02:09:42.481Z,8.22
2018-03-14T02:12:10.022Z,8.33
2018-03-14T02:14:37.545Z,8.15
2018-03-14T02:17:05.262Z,8.55
2018-03-14T02:19:32.788Z,8.63
2018-03-14T02:22:00.326Z,8.70
2018-03-14T02:24:27.874Z,8.64
2018-03-14T02:26:55.414Z,8.38
2018-03-14T02:29:23.261Z,8.64
2018-03-14T02:31:50.791Z,8.82
2018-03-14T02:34:18.320Z,8.36
2018-03-14T02:36:57.833Z,8.40
2018-03-14T02:39:25.361Z,8.68
2018-03-14T02:41:53.142Z,8.59
2018-03-14T02:44:20.684Z,8.68
2018-03-14T02:46:48.217Z,8.59
2018-03-14T02:49:16.664Z,8.67
2018-03-14T02:51:44.174Z,8.75
2018-03-14T02:54:11.965Z,8.53
2018-03-14T02:56:39.492Z,8.60
2018-03-14T02:59:07.518Z,8.53
2018-03-14T03:01:35.085Z,8.63
2018-03-14T03:04:02.597Z,8.36
2018-03-14T03:06:30.154Z,8.61
2018-03-14T03:08:57.666Z,8.67
2018-03-14T03:11:25.178Z,8.46
2018-03-14T03:13:52.722Z,8.72
2018-03-14T03:16:20.246Z,8.74
2018-03-14T03:18:47.986Z,8.65
2018-03-14T03:21:15.957Z,8.76
2018-03-14T03:23:43.465Z,8.76
2018-03-14T03:26:11.011Z,8.74
2018-03-14T03:28:38.521Z,8.76
2018-03-14T03:31:07.008Z,8.70
2018-03-14T03:33:35.474Z,8.73
2018-03-14T03:36:02.986Z,8.86
2018-03-14T03:38:30.611Z,8.84
2018-03-14T03:40:58.121Z,8.85
2018-03-14T03:43:25.667Z,8.97
2018-03-14T03:45:53.177Z,8.86
2018-03-14T03:48:20.686Z,8.88
2018-03-14T03:50:49.127Z,8.80
2018-03-14T03:53:17.583Z,8.90
2018-03-14T03:55:45.339Z,8.86
2018-03-14T03:58:12.849Z,8.86
2018-03-14T04:00:41.328Z,8.80
2018-03-14T04:03:09.254Z,8.77
2018-03-14T04:05:36.770Z,8.55
2018-03-14T04:08:04.340Z,8.49
2018-03-14T04:10:32.774Z,8.46
2018-03-14T04:13:00.285Z,8.64
2018-03-14T04:15:28.710Z,8.60
2018-03-14T04:17:56.225Z,8.75
2018-03-14T04:20:23.931Z,8.88
2018-03-14T04:22:51.442Z,8.82
2018-03-14T04:25:18.948Z,8.60
2018-03-14T04:27:46.482Z,8.67
2018-03-14T04:30:13.990Z,8.61
2018-03-14T04:32:41.543Z,8.50
2018-03-14T04:35:09.048Z,8.67
2018-03-14T04:37:37.566Z,8.60
2018-03-14T04:40:05.117Z,8.73
2018-03-14T04:42:32.633Z,8.60
2018-03-14T04:45:00.525Z,8.55
2018-03-14T04:47:28.044Z,8.25
2018-03-14T04:49:55.549Z,8.22
2018-03-14T04:52:23.078Z,8.32
2018-03-14T04:54:50.606Z,8.36
2018-03-14T04:57:18.369Z,8.47
2018-03-14T04:59:45.874Z,8.56
2018-03-14T05:02:13.391Z,8.65
2018-03-14T05:04:40.970Z,8.63
2018-03-14T05:07:08.478Z,8.41
2018-03-14T05:09:36.219Z,8.39
2018-03-14T05:12:03.730Z,8.45
2018-03-14T05:14:31.233Z,8.49
2018-03-14T05:16:58.777Z,8.53
2018-03-14T05:19:26.298Z,8.48
2018-03-14T05:21:53.849Z,8.24
2018-03-14T05:24:21.366Z,8.40
2018-03-14T05:26:48.930Z,8.48
2018-03-14T05:29:16.445Z,8.13
2018-03-14T05:31:44.889Z,8.10
2018-03-14T05:34:12.444Z,8.17
2018-03-14T05:36:39.957Z,8.05
2018-03-14T05:39:08.590Z,8.08
2018-03-14T05:41:36.142Z,8.19
2018-03-14T05:44:03.645Z,7.74
2018-03-14T05:46:31.190Z,8.03
2018-03-14T05:48:58.694Z,7.86
2018-03-14T05:51:26.206Z,7.98
2018-03-14T05:53:53.751Z,7.93
2018-03-14T05:56:21.257Z,8.11
2018-03-14T05:58:50.188Z,8.18
2018-03-14T06:01:17.698Z,8.08
2018-03-14T06:03:45.203Z,8.16
2018-03-14T06:06:12.734Z,7.98
2018-03-14T06:08:40.237Z,7.97
2018-03-14T06:11:07.966Z,7.97
2018-03-14T06:13:35.496Z,8.03
2018-03-14T06:16:03.005Z,7.88
2018-03-14T06:18:30.535Z,8.00
2018-03-14T06:20:58.049Z,8.27
2018-03-14T06:23:25.601Z,8.35
2018-03-14T06:25:53.114Z,8.25
2018-03-14T06:28:20.641Z,8.41
2018-03-14T06:30:48.177Z,8.36
2018-03-14T06:33:15.690Z,8.39
2018-03-14T06:35:43.477Z,8.32
2018-03-14T06:38:10.990Z,8.30
2018-03-14T06:40:38.510Z,8.30
2018-03-14T06:43:06.461Z,8.34
2018-03-14T06:45:33.972Z,8.20
2018-03-14T06:48:01.529Z,8.48
2018-03-14T06:50:29.039Z,8.54
2018-03-14T06:52:56.578Z,8.49
2018-03-14T06:55:24.109Z,8.56
2018-03-14T06:57:51.617Z,8.50
2018-03-14T07:00:31.767Z,8.34
2018-03-14T07:03:11.113Z,8.41
2018-03-14T07:05:50.437Z,8.92
2018-03-14T07:08:17.950Z,8.65
2018-03-14T07:10:45.738Z,8.88
2018-03-14T07:13:13.246Z,8.84
2018-03-14T07:15:40.775Z,8.91
2018-03-14T07:18:08.318Z,9.21
2018-03-14T07:20:35.830Z,9.25
2018-03-14T07:23:03.378Z,9.49
2018-03-14T07:25:30.906Z,9.63
2018-03-14T07:27:58.422Z,8.91
2018-03-14T07:30:25.970Z,9.21
2018-03-14T07:32:53.484Z,9.58
2018-03-14T07:35:21.046Z,9.61
2018-03-14T07:37:48.609Z,9.25
2018-03-14T07:40:16.125Z,9.07
2018-03-14T07:42:44.134Z,9.64
2018-03-14T07:45:11.795Z,9.68
2018-03-14T07:47:39.739Z,9.67
2018-03-14T07:50:07.280Z,9.72
2018-03-14T07:52:34.794Z,9.58
2018-03-14T07:55:02.334Z,9.77
2018-03-14T07:57:30.308Z,9.31
2018-03-14T07:59:57.849Z,9.64
2018-03-14T08:02:26.450Z,9.70
2018-03-14T08:04:54.413Z,9.48
2018-03-14T08:07:21.952Z,8.98
2018-03-14T08:09:49.468Z,9.59
2018-03-14T08:12:17.114Z,10.02
2018-03-14T08:14:44.625Z,10.67
2018-03-14T08:17:12.142Z,11.00
2018-03-14T08:19:39.684Z,11.54
2018-03-14T08:22:07.231Z,12.00
2018-03-14T08:24:34.968Z,11.36
2018-03-14T08:27:02.481Z,11.49
2018-03-14T08:29:30.117Z,11.63
2018-03-14T08:31:57.656Z,11.44
2018-03-14T08:34:25.245Z,11.41
2018-03-14T08:36:52.874Z,10.94
2018-03-14T08:39:20.452Z,11.14
2018-03-14T08:41:48.062Z,10.87
2018-03-14T08:44:15.775Z,11.03
2018-03-14T08:46:43.312Z,11.75
2018-03-14T08:49:10.872Z,11.97
2018-03-14T08:51:38.378Z,12.27
2018-03-14T08:54:05.898Z,12.25
2018-03-14T08:56:33.463Z,12.23
2018-03-14T08:59:00.974Z,12.86
2018-03-14T09:01:28.537Z,13.25
2018-03-14T09:03:57.310Z,12.91
2018-03-14T09:06:24.830Z,13.27
2018-03-14T09:08:53.677Z,13.49
2018-03-14T09:11:21.692Z,14.43
2018-03-14T09:13:49.354Z,14.60
2018-03-14T09:16:16.893Z,15.29
2018-03-14T09:18:44.427Z,15.72
2018-03-14T09:21:11.970Z,15.03
2018-03-14T09:23:39.486Z,15.06
2018-03-14T09:26:07.329Z,15.00
2018-03-14T09:28:34.846Z,15.06
2018-03-14T09:31:02.367Z,14.76
2018-03-14T09:33:29.915Z,15.86
2018-03-14T09:35:57.441Z,18.55
2018-03-14T09:38:25.122Z,20.70
2018-03-14T09:40:52.632Z,22.67
2018-03-14T09:43:20.157Z,25.11
2018-03-14T09:45:47.702Z,28.55
2018-03-14T09:48:15.694Z,29.01
2018-03-14T09:50:43.429Z,30.78
2018-03-14T09:53:11.071Z,28.82
2018-03-14T09:55:38.595Z,29.44
2018-03-14T09:58:06.215Z,29.55
2018-03-14T10:00:33.732Z,29.79
2018-03-14T10:03:01.271Z,29.24
2018-03-14T10:05:28.786Z,29.15
2018-03-14T10:07:56.301Z,29.34
2018-03-14T10:10:23.843Z,28.57
2018-03-14T10:12:51.551Z,31.22
2018-03-14T10:15:19.261Z,31.70
2018-03-14T10:17:46.792Z,32.09
2018-03-14T10:20:14.476Z,32.12
2018-03-14T10:22:42.444Z,31.78
2018-03-14T10:25:10.928Z,33.00
2018-03-14T10:27:38.779Z,34.17
2018-03-14T10:30:06.664Z,33.71
2018-03-14T10:32:34.195Z,31.03
2018-03-14T10:35:01.734Z,28.11
2018-03-14T10:37:29.282Z,27.19
2018-03-14T10:39:56.975Z,25.30
2018-03-14T10:42:24.970Z,23.09
2018-03-14T10:44:52.474Z,26.13
2018-03-14T10:47:20.007Z,29.15
2018-03-14T10:49:47.581Z,29.86
2018-03-14T10:52:15.138Z,30.15
2018-03-14T10:54:42.653Z,28.34
2018-03-14T10:57:10.166Z,24.74
2018-03-14T10:59:37.709Z,23.78
2018-03-14T11:05:10.222Z,22.13
2018-03-14T11:07:37.757Z,22.95
2018-03-14T11:10:05.629Z,24.81
2018-03-14T11:12:33.138Z,24.25
2018-03-14T11:15:00.662Z,25.65
2018-03-14T11:17:28.204Z,23.76
2018-03-14T11:19:55.714Z,23.06
2018-03-14T11:22:24.213Z,25.17
2018-03-14T11:24:51.721Z,26.81
2018-03-14T11:27:19.234Z,27.51
2018-03-14T11:29:46.782Z,26.61
2018-03-14T11:32:14.297Z,25.36
2018-03-14T11:34:41.982Z,25.30
2018-03-14T11:37:09.772Z,26.33
2018-03-14T11:39:37.300Z,26.40
2018-03-14T11:42:04.843Z,27.63
2018-03-14T11:44:32.360Z,28.46
2018-03-14T11:47:00.086Z,28.63
2018-03-14T11:49:27.595Z,27.06
2018-03-14T11:51:55.100Z,27.64
2018-03-14T11:54:22.629Z,30.92
2018-03-14T11:56:50.188Z,31.84
2018-03-14T11:59:17.878Z,33.01
2018-03-14T12:01:45.397Z,32.02
2018-03-14T12:04:12.907Z,31.84
2018-03-14T12:06:40.450Z,32.56
2018-03-14T12:09:08.014Z,31.64
2018-03-14T12:11:35.554Z,32.24
2018-03-14T12:14:03.088Z,33.37
2018-03-14T12:16:30.597Z,34.93
2018-03-14T12:18:58.126Z,35.88
2018-03-14T12:21:25.633Z,36.66
2018-03-14T12:23:53.483Z,35.45
2018-03-14T12:26:21.205Z,36.48
2018-03-14T12:28:48.742Z,35.85
2018-03-14T12:31:16.484Z,35.93
2018-03-14T12:33:44.003Z,32.81
2018-03-14T12:36:12.068Z,29.86
2018-03-14T12:38:39.585Z,28.84
2018-03-14T12:41:07.117Z,30.06
2018-03-14T12:43:34.794Z,31.99
2018-03-14T12:46:02.411Z,32.52
2018-03-14T12:48:30.525Z,34.03
2018-03-14T12:50:58.290Z,35.18
2018-03-14T12:53:26.156Z,32.37
2018-03-14T12:55:54.124Z,33.91
2018-03-14T12:58:21.686Z,33.03
2018-03-14T13:00:49.437Z,32.79
2018-03-14T13:03:17.305Z,32.29
2018-03-14T13:05:45.032Z,30.43
2018-03-14T13:08:12.828Z,31.70
2018-03-14T13:10:40.374Z,31.71
2018-03-14T13:13:08.211Z,30.18
2018-03-14T13:15:35.828Z,26.04
2018-03-14T13:18:03.592Z,23.29
2018-03-14T13:20:31.333Z,21.14
2018-03-14T13:22:58.850Z,20.46
2018-03-14T13:25:26.411Z,19.93
2018-03-14T13:27:54.125Z,21.18
2018-03-14T13:30:21.650Z,24.29
2018-03-14T13:32:49.243Z,27.85
2018-03-14T13:35:17.428Z,29.36
2018-03-14T13:37:45.032Z,24.36
2018-03-14T13:40:12.611Z,24.31
2018-03-14T13:42:40.152Z,25.58
2018-03-14T13:45:07.718Z,22.37
2018-03-14T13:47:35.225Z,24.47
2018-03-14T13:50:02.954Z,24.98
2018-03-14T13:52:30.501Z,25.31
2018-03-14T13:54:58.049Z,25.62
2018-03-14T13:57:25.972Z,26.97
2018-03-14T13:59:53.521Z,27.23
2018-03-14T14:02:21.098Z,27.85
2018-03-14T14:04:48.671Z,27.26
2018-03-14T14:07:16.722Z,28.56
2018-03-14T14:09:44.256Z,29.15
2018-03-14T14:12:11.987Z,28.23
2018-03-14T14:14:39.707Z,28.72
2018-03-14T14:17:07.224Z,29.02
2018-03-14T14:19:34.874Z,27.99
2018-03-14T14:22:02.389Z,28.91
2018-03-14T14:24:30.035Z,27.92
2018-03-14T14:26:57.622Z,26.19
2018-03-14T14:29:25.151Z,25.61
2018-03-14T14:31:52.803Z,26.96
2018-03-14T14:34:20.661Z,26.25
2018-03-14T14:36:48.206Z,25.77
2018-03-14T14:39:15.914Z,25.31
2018-03-14T14:41:43.660Z,25.84
2018-03-14T14:44:11.442Z,25.62
2018-03-14T14:46:39.103Z,26.49
2018-03-14T14:49:07.585Z,26.55
2018-03-14T14:51:35.862Z,27.08
2018-03-14T14:54:03.475Z,26.46
2018-03-14T14:56:31.023Z,24.36
2018-03-14T14:58:59.704Z,24.88
2018-03-14T15:01:27.297Z,25.06
2018-03-14T15:03:55.091Z,23.19
2018-03-14T15:06:22.854Z,21.58
2018-03-14T15:08:50.823Z,21.73
2018-03-14T15:11:18.558Z,22.02
2018-03-14T15:13:46.455Z,22.29
2018-03-14T15:16:14.631Z,22.00
2018-03-14T15:18:43.214Z,22.09
2018-03-14T15:21:11.190Z,21.80
2018-03-14T15:23:38.931Z,20.81
2018-03-14T15:26:07.015Z,19.53
2018-03-14T15:28:34.985Z,18.29
2018-03-14T15:31:02.913Z,17.61
2018-03-14T15:33:31.026Z,16.65
2018-03-14T15:35:58.881Z,15.67
2018-03-14T15:38:26.968Z,15.56
2018-03-14T15:40:54.828Z,15.32
2018-03-14T15:43:23.515Z,14.85
2018-03-14T15:45:51.482Z,14.85
2018-03-14T15:48:19.341Z,14.44
2018-03-14T15:50:47.281Z,14.38
2018-03-14T15:53:14.980Z,14.35
2018-03-14T15:55:42.744Z,14.04
2018-03-14T15:58:10.510Z,13.57
2018-03-14T16:00:38.271Z,14.06
2018-03-14T16:03:06.343Z,13.46
2018-03-14T16:05:34.004Z,13.54
2018-03-14T16:08:01.556Z,13.71
2018-03-14T16:10:29.224Z,13.58
2018-03-14T16:12:57.091Z,13.64
2018-03-14T16:15:24.956Z,13.65
2018-03-14T16:17:52.630Z,13.36
2018-03-14T16:20:20.280Z,13.25
2018-03-14T16:22:48.249Z,13.46
2018-03-14T16:25:16.117Z,13.55
2018-03-14T16:27:43.880Z,13.37
2018-03-14T16:30:11.747Z,13.35
2018-03-14T16:32:39.513Z,13.50
2018-03-14T16:35:07.377Z,13.15
2018-03-14T16:37:35.222Z,13.08
2018-03-14T16:40:03.100Z,13.33
2018-03-14T16:42:30.874Z,13.39
2018-03-14T16:44:58.720Z,13.46
2018-03-14T16:47:26.505Z,13.21
2018-03-14T16:49:54.373Z,13.06
2018-03-14T16:52:22.749Z,13.11
2018-03-14T16:54:50.618Z,13.00
2018-03-14T16:57:18.482Z,12.67
2018-03-14T16:59:46.449Z,12.61
2018-03-14T17:02:14.238Z,12.57
2018-03-14T17:04:42.184Z,12.57
2018-03-14T17:07:10.051Z,12.38
2018-03-14T17:09:37.919Z,12.15
2018-03-14T17:12:05.884Z,12.14
2018-03-14T17:14:33.857Z,12.11
2018-03-14T17:17:01.888Z,12.20
2018-03-14T17:19:29.792Z,12.00
2018-03-14T17:21:57.659Z,11.80
2018-03-14T17:24:25.627Z,11.80
2018-03-14T17:26:53.498Z,11.74
2018-03-14T17:29:21.564Z,11.76
2018-03-14T17:31:49.613Z,11.49
2018-03-14T17:34:17.608Z,11.46
2018-03-14T17:36:45.575Z,11.33
2018-03-14T17:39:13.544Z,11.41
2018-03-14T17:41:41.781Z,11.38
2018-03-14T17:44:09.688Z,11.12
2018-03-14T17:46:37.488Z,11.15
2018-03-14T17:49:05.317Z,10.89
2018-03-14T17:51:33.859Z,11.13
2018-03-14T17:54:02.381Z,11.06
2018-03-14T17:56:30.206Z,11.13
2018-03-14T17:58:58.114Z,11.00
2018-03-14T18:01:26.082Z,10.97
2018-03-14T18:03:53.949Z,10.81
2018-03-14T18:06:22.225Z,10.75
2018-03-14T18:08:51.628Z,10.69
2018-03-14T18:11:19.698Z,10.62
2018-03-14T18:13:48.795Z,10.62
2018-03-14T18:16:16.763Z,10.52
2018-03-14T18:18:46.883Z,10.46
2018-03-14T18:21:14.749Z,10.23
2018-03-14T18:23:42.716Z,10.37
2018-03-14T18:26:11.502Z,10.33
2018-03-14T18:28:39.369Z,10.31
2018-03-14T18:31:07.640Z,10.33
2018-03-14T18:33:35.641Z,10.28
2018-03-14T18:36:07.679Z,10.30
2018-03-14T18:38:35.956Z,10.29
2018-03-14T18:41:03.924Z,10.22
2018-03-14T18:43:31.723Z,10.05
2018-03-14T18:45:59.762Z,9.94
2018-03-14T18:48:27.627Z,10.02
2018-03-14T18:50:55.742Z,10.01
2018-03-14T18:53:24.440Z,9.93
2018-03-14T18:55:52.556Z,9.90
2018-03-14T18:58:20.422Z,9.91
2018-03-14T19:00:49.109Z,9.78
2018-03-14T19:03:18.786Z,9.71
2018-03-14T19:05:46.685Z,9.72
2018-03-14T19:08:15.082Z,9.75
2018-03-14T19:10:42.889Z,9.73
2018-03-14T19:13:10.750Z,9.53
2018-03-14T19:15:38.646Z,9.39
2018-03-14T19:18:06.531Z,9.49
2018-03-14T19:20:36.035Z,9.48
2018-03-14T19:23:04.108Z,9.47
2018-03-14T19:25:32.586Z,9.37
2018-03-14T19:28:00.561Z,9.40
2018-03-14T19:30:28.832Z,9.43
2018-03-14T19:32:57.109Z,9.44
2018-03-14T19:35:25.075Z,9.39
2018-03-14T19:37:52.918Z,9.18
2018-03-14T19:40:21.013Z,9.17
2018-03-14T19:42:49.098Z,9.21
2018-03-14T19:45:17.366Z,9.25
2018-03-14T19:47:45.228Z,9.26
2018-03-14T19:50:13.212Z,9.10
2018-03-14T19:52:42.190Z,9.18
2018-03-14T19:55:10.061Z,9.09
2018-03-14T19:57:38.146Z,9.11
2018-03-14T20:00:07.016Z,9.00
2018-03-14T20:02:34.883Z,9.23
2018-03-14T20:05:02.856Z,9.22
2018-03-14T20:07:30.718Z,9.07
2018-03-14T20:09:58.994Z,8.92
2018-03-14T20:12:26.861Z,8.93
2018-03-14T20:14:54.669Z,8.86
2018-03-14T20:17:22.697Z,8.82
2018-03-14T20:19:50.558Z,8.83
2018-03-14T20:22:18.755Z,8.75
2018-03-14T20:24:47.286Z,8.71
2018-03-14T20:27:15.390Z,8.66
2018-03-14T20:29:43.359Z,8.54
2018-03-14T20:32:11.225Z,8.53
2018-03-14T20:34:39.129Z,8.67
2018-03-14T20:37:07.020Z,8.64
2018-03-14T20:39:35.238Z,8.66
2018-03-14T20:42:03.182Z,8.59
2018-03-14T20:44:31.071Z,8.45
2018-03-14T20:47:00.136Z,8.37
2018-03-14T20:49:28.208Z,8.38
2018-03-14T20:51:57.228Z,8.27
2018-03-14T20:54:25.261Z,8.12
2018-03-14T20:56:53.166Z,8.00
2018-03-14T20:59:21.739Z,7.92
2018-03-14T21:01:50.640Z,7.95
2018-03-14T21:04:18.713Z,7.99
2018-03-14T21:06:46.680Z,7.81
2018-03-14T21:09:15.263Z,7.88
2018-03-14T21:11:44.667Z,7.85
2018-03-14T21:14:13.454Z,7.82
2018-03-14T21:16:41.320Z,7.80
2018-03-14T21:19:09.290Z,7.77
2018-03-14T21:21:38.198Z,7.73
2018-03-14T21:24:06.251Z,7.66
2018-03-14T21:26:34.556Z,7.64
2018-03-14T21:29:02.496Z,7.60
2018-03-14T21:31:30.364Z,7.54
2018-03-14T21:33:58.638Z,7.48
2018-03-14T21:36:26.847Z,7.45
2018-03-14T21:38:55.663Z,7.40
2018-03-14T21:41:24.285Z,7.38
2018-03-14T21:43:52.253Z,7.38
2018-03-14T21:46:20.187Z,7.40
2018-03-14T21:48:48.501Z,7.47
2018-03-14T21:51:16.410Z,7.53
2018-03-14T21:53:44.281Z,7.55
2018-03-14T21:56:12.207Z,7.46
2018-03-14T21:58:39.967Z,7.45
2018-03-14T22:01:07.937Z,7.30
2018-03-14T22:03:36.007Z,7.40
2018-03-14T22:06:04.332Z,7.38
2018-03-14T22:08:32.559Z,7.30
2018-03-14T22:11:00.222Z,7.21
2018-03-14T22:13:28.107Z,7.25
2018-03-14T22:15:55.952Z,7.19
2018-03-14T22:18:23.819Z,7.23
2018-03-14T22:20:51.468Z,7.11
2018-03-14T22:23:19.288Z,7.16
2018-03-14T22:25:47.010Z,7.01
2018-03-14T22:28:14.772Z,7.04
2018-03-14T22:30:42.639Z,7.10
2018-03-14T22:33:10.260Z,7.09
2018-03-14T22:35:37.889Z,7.01
2018-03-14T22:38:05.604Z,7.07
2018-03-14T22:40:33.184Z,6.98
2018-03-14T22:43:00.802Z,7.00
2018-03-14T22:45:28.352Z,6.98
2018-03-14T22:47:55.893Z,6.93
2018-03-14T22:50:23.623Z,6.92
2018-03-14T22:52:51.285Z,6.99
2018-03-14T22:55:19.006Z,6.98
2018-03-14T22:57:46.714Z,7.07
2018-03-14T23:00:14.683Z,7.00
2018-03-14T23:02:42.546Z,7.04
2018-03-14T23:05:11.193Z,7.01
2018-03-14T23:07:39.289Z,7.01
2018-03-14T23:10:06.938Z,6.89
2018-03-14T23:12:34.731Z,6.89
2018-03-14T23:15:02.482Z,6.91
2018-03-14T23:17:30.259Z,6.85
2018-03-14T23:19:58.213Z,6.76
2018-03-14T23:22:25.874Z,6.67
2018-03-14T23:24:53.530Z,6.59
2018-03-14T23:27:21.211Z,6.54
2018-03-14T23:29:48.858Z,6.55
2018-03-14T23:32:16.453Z,6.58
2018-03-14T23:34:44.298Z,6.61
2018-03-14T23:37:11.887Z,6.60
2018-03-14T23:39:39.518Z,6.56
2018-03-14T23:42:07.038Z,6.50
2018-03-14T23:44:34.817Z,6.42
2018-03-14T23:47:02.342Z,6.37
2018-03-14T23:49:29.849Z,6.33
2018-03-14T23:51:57.381Z,6.28
2018-03-14T23:54:24.895Z,6.24
2018-03-14T23:56:53.355Z,6.23
2018-03-14T23:59:20.870Z,6.28
